Time;durP1;ratioP1;P1;durP2;ratioP2;P2;SDS_P1;SDS_P2;PMS_P1;PMS_P2;Temp;Humidity;BMP_temperature;BMP_pressure;BME280_temperature;BME280_humidity;BME280_pressure;Samples;Min_cycle;Max_cycle;Signal;HPM_P1;HPM_P2
2022/05/13 00:02:17;;;;;;;27.88;13.27;;;;;;;14.93;100.00;95843.19;5053581;28;20721;-77
2022/05/13 00:04:42;;;;;;;23.55;12.82;;;;;;;15.01;100.00;95842.53;5053347;28;20048;-77
2022/05/13 00:07:08;;;;;;;23.42;13.70;;;;;;;15.02;100.00;95841.44;5042684;28;20044;-77
2022/05/13 00:12:18;;;;;;;24.52;13.02;;;;;;;14.93;100.00;95832.59;5042352;28;20033;-77
2022/05/13 00:14:45;;;;;;;22.33;12.85;;;;;;;14.97;100.00;95838.88;5053226;28;20037;-77
2022/05/13 00:17:11;;;;;;;23.15;13.15;;;;;;;14.99;100.00;95834.06;5051421;28;20495;-77
2022/05/13 00:19:37;;;;;;;21.98;12.55;;;;;;;14.98;100.00;95834.34;5052055;28;20045;-76
2022/05/13 00:22:03;;;;;;;25.25;12.30;;;;;;;15.06;100.00;95831.84;5034133;28;20048;-77
2022/05/13 00:24:29;;;;;;;21.30;13.05;;;;;;;15.05;100.00;95835.56;5051840;28;20037;-77
2022/05/13 00:26:54;;;;;;;27.05;12.75;;;;;;;15.01;100.00;95831.94;5048565;28;20445;-77
2022/05/13 00:29:20;;;;;;;24.05;13.32;;;;;;;15.06;100.00;95837.13;5032671;28;20549;-75
2022/05/13 00:31:45;;;;;;;24.58;12.95;;;;;;;15.02;100.00;95838.78;5047528;28;20029;-76
2022/05/13 00:34:11;;;;;;;23.25;13.18;;;;;;;15.02;100.00;95824.75;5045986;28;20041;-76
2022/05/13 00:36:37;;;;;;;23.38;12.10;;;;;;;14.94;100.00;95833.34;5030709;28;20041;-76
2022/05/13 00:39:04;;;;;;;32.35;14.93;;;;;;;15.13;100.00;95835.97;5048766;28;20055;-76
2022/05/13 00:41:30;;;;;;;23.35;12.82;;;;;;;15.07;100.00;95833.41;5051750;28;20033;-77
2022/05/13 00:43:56;;;;;;;22.88;12.57;;;;;;;15.02;100.00;95830.06;5051184;28;20063;-77
2022/05/13 00:46:23;;;;;;;27.50;12.50;;;;;;;15.09;100.00;95835.00;5050806;28;20410;-76
2022/05/13 00:48:50;;;;;;;20.20;12.63;;;;;;;15.00;100.00;95827.69;5050313;28;20037;-76
2022/05/13 00:51:22;;;;;;;21.08;11.98;;;;;;;15.00;100.00;95822.41;5048831;28;20037;-77
2022/05/13 00:53:48;;;;;;;19.33;12.05;;;;;;;14.98;100.00;95832.50;5050010;28;20106;-76
2022/05/13 00:56:15;;;;;;;21.25;12.25;;;;;;;15.06;100.00;95831.84;5032280;28;20546;-77
2022/05/13 00:58:46;;;;;;;21.58;12.43;;;;;;;15.07;100.00;95828.13;5033893;28;20048;-77
2022/05/13 01:01:12;;;;;;;19.88;12.27;;;;;;;15.01;100.00;95828.47;5050298;28;20715;-77
2022/05/13 01:03:39;;;;;;;24.90;11.68;;;;;;;15.03;100.00;95832.41;5049632;28;20064;-77
2022/05/13 01:06:08;;;;;;;19.95;11.88;;;;;;;15.07;100.00;95833.41;5050743;28;20048;-76
2022/05/13 01:08:36;;;;;;;22.63;12.95;;;;;;;15.06;100.00;95826.53;5048273;28;20064;-76
2022/05/13 01:11:05;;;;;;;21.17;12.18;;;;;;;15.12;100.00;95834.41;5050547;28;20045;-77
2022/05/13 01:13:34;;;;;;;21.10;12.18;;;;;;;15.03;100.00;95832.41;5032509;28;20033;-76
2022/05/13 01:16:00;;;;;;;24.92;11.48;;;;;;;15.03;100.00;95827.13;5050138;28;20061;-76
2022/05/13 01:18:38;;;;;;;20.83;12.43;;;;;;;15.14;100.00;95827.75;5031846;28;20064;-77
2022/05/13 01:21:06;;;;;;;19.38;11.18;;;;;;;15.10;100.00;95825.94;5045721;28;20095;-76
2022/05/13 01:23:41;;;;;;;21.50;11.65;;;;;;;15.07;100.00;95820.16;5028768;28;20495;-76
2022/05/13 01:26:11;;;;;;;19.10;11.50;;;;;;;15.04;100.00;95823.41;5049495;28;20052;-76
2022/05/13 01:28:42;;;;;;;22.67;11.68;;;;;;;15.02;100.00;95814.94;5047157;28;20044;-76
2022/05/13 01:31:12;;;;;;;16.88;11.13;;;;;;;15.01;100.00;95818.69;5028320;28;20541;-75
2022/05/13 01:33:39;;;;;;;18.90;11.15;;;;;;;15.03;100.00;95816.50;5030533;28;20119;-75
2022/05/13 01:36:09;;;;;;;21.00;11.25;;;;;;;14.98;100.00;95808.63;5031371;28;20064;-76
2022/05/13 01:38:37;;;;;;;26.00;12.40;;;;;;;15.03;100.00;95816.50;5045382;28;20044;-75
2022/05/13 01:41:05;;;;;;;21.83;11.40;;;;;;;15.00;100.00;95817.09;5049363;28;20573;-75
2022/05/13 01:43:31;;;;;;;19.02;10.95;;;;;;;14.94;100.00;95823.56;5028035;28;20044;-74
2022/05/13 01:45:58;;;;;;;22.95;11.93;;;;;;;14.88;100.00;95825.50;5049931;28;20517;-75
2022/05/13 01:48:24;;;;;;;18.23;10.50;;;;;;;14.95;100.00;95825.13;5048745;28;20045;-76
2022/05/13 01:50:50;;;;;;;19.75;11.35;;;;;;;14.95;100.00;95829.66;5028204;28;20047;-76
2022/05/13 01:53:16;;;;;;;18.35;11.70;;;;;;;15.04;100.00;95830.53;5045300;28;20487;-75
2022/05/13 01:55:44;;;;;;;20.92;11.90;;;;;;;15.02;100.00;95825.53;5033406;28;20052;-75
2022/05/13 01:58:15;;;;;;;18.90;10.80;;;;;;;15.10;100.00;95833.91;5045024;28;20505;-74
2022/05/13 02:00:44;;;;;;;22.88;12.23;;;;;;;15.10;100.00;95836.56;5037223;28;20068;-75
2022/05/13 02:05:54;;;;;;;;;;;;;;;15.11;100.00;95827.53;5043968;28;20123;-75
2022/05/13 02:08:19;;;;;;;20.65;11.52;;;;;;;15.15;100.00;95828.53;5049725;28;19947;-74
2022/05/13 02:10:45;;;;;;;17.27;11.05;;;;;;;15.11;100.00;95830.19;5048700;28;20036;-75
2022/05/13 02:13:12;;;;;;;19.80;11.20;;;;;;;15.13;100.00;95825.38;5049440;28;20040;-74
2022/05/13 02:15:38;;;;;;;18.75;12.35;;;;;;;15.11;100.00;95816.94;5049289;28;20167;-75
2022/05/13 02:18:05;;;;;;;20.13;12.05;;;;;;;15.13;100.00;95825.38;5037992;28;20128;-74
2022/05/13 02:20:30;;;;;;;19.45;11.60;;;;;;;15.17;100.00;95832.47;5031129;28;20057;-75
2022/05/13 02:22:56;;;;;;;20.98;12.52;;;;;;;15.07;100.00;95833.41;5049274;28;20045;-75
2022/05/13 02:25:22;;;;;;;20.95;12.00;;;;;;;15.09;100.00;95829.69;5042230;28;20037;-75
2022/05/13 02:27:47;;;;;;;19.13;11.52;;;;;;;15.11;100.00;95824.88;5047769;28;20052;-75
2022/05/13 02:30:14;;;;;;;25.13;12.07;;;;;;;15.04;100.00;95826.06;5048071;28;20045;-75
2022/05/13 02:32:40;;;;;;;19.75;12.57;;;;;;;14.97;100.00;95828.28;5027555;28;20690;-75
2022/05/13 02:35:06;;;;;;;18.45;11.95;;;;;;;14.99;100.00;95826.13;5023970;28;20049;-76
2022/05/13 02:37:32;;;;;;;23.17;11.68;;;;;;;15.01;100.00;95834.59;5049102;28;20040;-75
2022/05/13 02:39:58;;;;;;;21.48;11.68;;;;;;;15.03;100.00;95843.03;5043903;28;20445;-75
2022/05/13 02:42:23;;;;;;;19.17;12.20;;;;;;;15.07;100.00;95833.41;5030211;28;20049;-75
2022/05/13 02:44:49;;;;;;;22.33;12.40;;;;;;;15.06;100.00;95831.84;5040810;28;20048;-75
2022/05/13 02:47:15;;;;;;;20.95;12.07;;;;;;;15.11;100.00;95832.84;5047717;28;20470;-75
2022/05/13 02:49:42;;;;;;;20.15;11.52;;;;;;;15.16;100.00;95827.47;5049057;28;20418;-74
2022/05/13 02:52:11;;;;;;;17.90;11.73;;;;;;;15.09;100.00;95829.69;5044030;28;20037;-74
2022/05/13 02:54:37;;;;;;;27.65;12.20;;;;;;;15.15;100.00;95833.84;5040794;28;20634;-73
2022/05/13 02:57:03;;;;;;;20.08;11.85;;;;;;;15.05;100.00;95830.25;5044318;28;20041;-74
2022/05/13 02:59:29;;;;;;;21.73;12.23;;;;;;;15.03;100.00;95829.00;5043766;28;20049;-74
2022/05/13 03:01:54;;;;;;;19.70;11.63;;;;;;;15.10;100.00;95820.66;5047369;28;20576;-73
2022/05/13 03:04:21;;;;;;;19.48;11.23;;;;;;;15.03;100.00;95821.81;5048725;28;20133;-74
2022/05/13 03:06:47;;;;;;;20.70;12.43;;;;;;;14.90;100.00;95827.88;5043055;28;20095;-74
2022/05/13 03:09:13;;;;;;;19.58;11.48;;;;;;;14.91;100.00;95829.41;5042557;28;20049;-74
2022/05/13 03:11:38;;;;;;;21.23;11.65;;;;;;;14.93;100.00;95821.97;5048498;28;20044;-74
2022/05/13 03:14:04;;;;;;;17.77;11.40;;;;;;;14.93;100.00;95837.88;5048774;28;20633;-74
2022/05/13 03:16:30;;;;;;;19.10;11.73;;;;;;;14.92;100.00;95831.00;5047815;28;20045;-74
2022/05/13 03:18:59;;;;;;;22.52;11.57;;;;;;;14.85;100.00;95831.34;5039011;28;20049;-73
2022/05/13 03:21:26;;;;;;;23.92;12.32;;;;;;;14.68;100.00;95818.66;5048385;28;20041;-74
2022/05/13 03:23:52;;;;;;;20.60;12.07;;;;;;;14.69;100.00;95816.78;5031075;28;20125;-74
2022/05/13 03:26:20;;;;;;;20.92;11.57;;;;;;;14.66;100.00;95807.53;5047538;28;20037;-74
2022/05/13 03:28:46;;;;;;;20.02;11.90;;;;;;;14.59;100.00;95812.38;5048225;28;20048;-74
2022/05/13 03:31:12;;;;;;;23.25;11.52;;;;;;;14.64;100.00;95825.59;5047724;28;20041;-74
2022/05/13 03:33:38;;;;;;;17.77;9.95;;;;;;;14.58;100.00;95821.41;5037288;28;20054;-74
2022/05/13 03:36:05;;;;;;;17.35;9.75;;;;;;;14.59;100.00;95817.69;5054981;28;20056;-74
2022/05/13 03:38:30;;;;;;;18.33;9.98;;;;;;;14.55;100.00;95811.38;5045495;28;20033;-74
2022/05/13 03:40:56;;;;;;;17.80;10.02;;;;;;;14.51;100.00;95805.06;5037228;28;20495;-75
2022/05/13 03:43:21;;;;;;;16.30;9.55;;;;;;;14.59;100.00;95812.38;5051325;28;20045;-75
2022/05/13 03:45:47;;;;;;;17.42;10.18;;;;;;;14.49;100.00;95796.66;5055356;28;20052;-75
2022/05/13 03:48:13;;;;;;;15.60;9.73;;;;;;;14.47;100.00;95801.47;5053915;28;20166;-74
2022/05/13 03:50:41;;;;;;;20.95;10.63;;;;;;;14.44;100.00;95804.66;5054748;28;20057;-74
2022/05/13 03:53:07;;;;;;;21.00;9.80;;;;;;;14.35;100.00;95792.06;5055098;28;20124;-75
2022/05/13 03:55:33;;;;;;;27.63;10.55;;;;;;;14.31;100.00;95795.56;5037136;28;20139;-75
2022/05/13 03:58:00;;;;;;;18.33;10.30;;;;;;;14.33;100.00;95793.44;5033752;28;20111;-75
2022/05/13 04:00:26;;;;;;;16.67;9.63;;;;;;;14.36;100.00;95790.97;5042103;28;20174;-75
2022/05/13 04:02:53;;;;;;;17.90;10.10;;;;;;;14.34;100.00;95785.19;5054509;28;20634;-75
2022/05/13 04:10:48;;;;;;;22.77;11.55;;;;;;;14.26;100.00;95793.00;5049691;28;20045;-75
2022/05/13 04:16:04;;;;;;;19.08;11.27;;;;;;;14.26;100.00;95796.41;5046462;28;20097;-75
2022/05/13 04:18:38;;;;;;;19.40;10.88;;;;;;;14.33;100.00;95799.50;5050518;28;20116;-75
2022/05/13 04:21:07;;;;;;;20.13;11.35;;;;;;;14.31;100.00;95801.66;5053953;28;20053;-75
2022/05/13 04:23:35;;;;;;;20.80;11.00;;;;;;;14.35;100.00;95802.66;5048237;28;20041;-75
2022/05/13 04:26:00;;;;;;;21.67;10.57;;;;;;;14.30;100.00;95794.78;5036873;28;20040;-75
2022/05/13 04:28:27;;;;;;;19.20;10.55;;;;;;;14.31;100.00;95801.66;5053561;28;20087;-75
2022/05/13 04:30:52;;;;;;;20.17;11.55;;;;;;;14.32;100.00;95803.25;5053898;28;20116;-75
2022/05/13 04:33:18;;;;;;;19.42;10.75;;;;;;;14.49;100.00;95808.03;5049474;28;20654;-75
2022/05/13 04:35:43;;;;;;;20.20;11.43;;;;;;;14.41;100.00;95806.03;5051564;28;20053;-76
2022/05/13 04:38:09;;;;;;;19.88;10.93;;;;;;;14.49;100.00;95807.25;5053783;28;20049;-74
2022/05/13 04:40:35;;;;;;;18.33;11.35;;;;;;;14.53;100.00;95813.53;5054425;28;20112;-74
2022/05/13 04:43:01;;;;;;;16.33;10.23;;;;;;;14.52;100.00;95811.97;5050799;28;20060;-74
2022/05/13 04:45:29;;;;;;;22.73;11.00;;;;;;;14.50;100.00;95819.41;5043641;28;20045;-74
2022/05/13 04:48:16;;;;;;;20.80;11.68;;;;;;;14.54;100.00;95817.78;5047460;28;20041;-74
2022/05/13 04:51:01;;;;;;;20.35;10.95;;;;;;;14.56;100.00;95823.56;5046412;28;20045;-74
2022/05/13 04:53:32;;;;;;;21.17;11.38;;;;;;;14.48;100.00;95826.84;5049991;28;20406;-74
2022/05/13 04:55:59;;;;;;;23.35;11.60;;;;;;;14.58;100.00;95832.00;5049817;28;20053;-74
2022/05/13 04:58:26;;;;;;;22.02;10.93;;;;;;;14.60;100.00;95832.50;5030155;28;20513;-74
2022/05/13 05:00:54;;;;;;;19.90;11.93;;;;;;;14.63;100.00;95829.31;5049215;28;20041;-74
2022/05/13 05:03:23;;;;;;;25.35;13.23;;;;;;;14.60;100.00;95835.16;5050959;28;20044;-74
2022/05/13 05:05:49;;;;;;;22.67;12.93;;;;;;;14.65;100.00;95836.97;5047327;28;20033;-74
2022/05/13 05:08:16;;;;;;;18.92;11.85;;;;;;;14.82;100.00;95836.47;5050843;28;20052;-73
2022/05/13 05:10:44;;;;;;;18.58;12.05;;;;;;;14.91;100.00;95845.31;5049901;28;20040;-74
2022/05/13 05:13:10;;;;;;;18.40;11.65;;;;;;;14.93;100.00;95837.88;5046292;28;20606;-74
2022/05/13 05:15:39;;;;;;;20.45;11.45;;;;;;;14.92;100.00;95841.59;5046108;28;20037;-75
2022/05/13 05:18:05;;;;;;;21.08;12.50;;;;;;;14.97;100.00;95844.19;5049747;28;20045;-74
2022/05/13 05:20:30;;;;;;;23.60;11.80;;;;;;;15.02;100.00;95836.13;5042569;28;20064;-76
2022/05/13 05:22:56;;;;;;;21.23;12.20;;;;;;;15.10;100.00;95844.50;5045948;28;20055;-76
2022/05/13 05:25:28;;;;;;;18.90;11.30;;;;;;;15.15;100.00;95857.69;5040921;28;20041;-76
2022/05/13 05:27:57;;;;;;;19.52;11.27;;;;;;;15.23;100.00;95862.34;5033582;28;20051;-75
2022/05/13 05:30:25;;;;;;;21.98;11.75;;;;;;;15.22;100.00;95866.06;5047937;28;20059;-76
2022/05/13 05:32:51;;;;;;;19.02;10.35;;;;;;;15.20;100.00;95868.19;5052135;28;20038;-76
2022/05/13 05:35:20;;;;;;;18.08;11.10;;;;;;;15.17;100.00;95874.88;5055201;28;20421;-76
2022/05/13 05:37:46;;;;;;;17.90;9.68;;;;;;;15.23;100.00;95867.63;5052701;28;20036;-77
2022/05/13 05:40:12;;;;;;;17.15;10.25;;;;;;;15.19;100.00;95861.34;5050768;28;20056;-77
2022/05/13 05:42:40;;;;;;;14.43;9.55;;;;;;;15.23;100.00;95872.94;5042821;28;20045;-76
2022/05/13 05:45:09;;;;;;;12.65;8.55;;;;;;;15.29;100.00;95882.38;5050453;28;20574;-75
2022/05/13 05:47:35;;;;;;;13.52;8.65;;;;;;;15.23;100.00;95884.31;5043259;28;20457;-76
2022/05/13 05:50:02;;;;;;;11.93;8.27;;;;;;;15.27;100.00;95895.16;5045864;28;20052;-75
2022/05/13 05:52:28;;;;;;;14.32;8.02;;;;;;;15.20;100.00;95881.44;5050783;28;20049;-77
2022/05/13 05:57:37;;;;;;;10.85;7.38;;;;;;;15.07;100.00;95881.13;5044857;28;20048;-76
2022/05/13 06:00:06;;;;;;;12.85;7.25;;;;;;;15.02;100.00;95894.44;5047908;28;20045;-76
2022/05/13 06:02:32;;;;;;;14.48;7.75;;;;;;;15.00;100.00;95891.31;5023583;28;20060;-75
2022/05/13 06:04:58;;;;;;;13.73;8.45;;;;;;;14.97;100.00;95883.94;5049566;28;20049;-75
2022/05/13 06:07:23;;;;;;;12.60;7.80;;;;;;;15.02;100.00;95893.66;5049673;28;20044;-74
2022/05/13 06:09:49;;;;;;;12.77;8.60;;;;;;;14.99;100.00;95889.72;5048261;28;20441;-74
2022/05/13 06:12:16;;;;;;;15.02;8.98;;;;;;;15.00;100.00;95886.00;5048764;28;20067;-74
2022/05/13 06:14:42;;;;;;;15.75;8.45;;;;;;;15.10;100.00;95890.38;5044698;28;20108;-77
2022/05/13 06:17:08;;;;;;;13.68;7.97;;;;;;;15.13;100.00;95888.97;5024048;28;20041;-75
2022/05/13 06:19:35;;;;;;;12.00;7.60;;;;;;;14.93;100.00;95884.78;5048902;28;20057;-75
2022/05/13 06:22:01;;;;;;;15.40;8.13;;;;;;;14.97;100.00;95883.94;5048779;28;20968;-74
2022/05/13 06:24:26;;;;;;;16.60;8.52;;;;;;;15.06;100.00;95890.16;5049577;28;20064;-74
2022/05/13 06:26:52;;;;;;;12.30;8.02;;;;;;;15.13;100.00;95896.94;5049000;28;20044;-75
2022/05/13 06:29:20;;;;;;;14.98;9.20;;;;;;;15.10;100.00;95889.56;5029552;28;20072;-76
2022/05/13 06:31:45;;;;;;;14.98;9.00;;;;;;;15.04;100.00;95887.00;5048344;28;20037;-74
2022/05/13 06:34:11;;;;;;;16.27;9.00;;;;;;;14.98;100.00;95882.06;5048618;28;20517;-77
2022/05/13 06:36:37;;;;;;;18.00;8.82;;;;;;;15.09;100.00;95893.31;5049275;28;20045;-75
2022/05/13 06:39:05;;;;;;;18.20;9.32;;;;;;;15.19;100.00;95885.19;5045726;28;20045;-76
2022/05/13 06:41:31;;;;;;;20.38;9.82;;;;;;;15.23;100.00;95888.84;5029719;28;20041;-74
2022/05/13 06:43:57;;;;;;;18.85;9.00;;;;;;;15.25;100.00;95876.09;5047411;28;20076;-75
2022/05/13 06:46:23;;;;;;;20.13;9.55;;;;;;;15.18;100.00;95896.88;5028842;28;20090;-74
2022/05/13 06:48:49;;;;;;;17.73;9.57;;;;;;;15.11;100.00;95885.84;5047009;28;20589;-74
2022/05/13 06:51:16;;;;;;;17.67;9.65;;;;;;;15.07;100.00;95886.44;5047256;28;20041;-78
2022/05/13 06:53:42;;;;;;;19.13;10.27;;;;;;;15.09;100.00;95882.72;5045124;28;20162;-75
2022/05/13 06:56:08;;;;;;;17.40;10.40;;;;;;;15.13;100.00;95884.50;5047436;28;20048;-74
2022/05/13 06:58:35;;;;;;;18.45;10.60;;;;;;;15.20;100.00;95879.59;5028998;28;20049;-75
2022/05/13 07:01:01;;;;;;;16.42;10.27;;;;;;;15.23;100.00;95868.41;5046917;28;20482;-75
2022/05/13 07:03:27;;;;;;;14.98;10.23;;;;;;;15.31;100.00;95872.25;5045278;28;20041;-75
2022/05/13 07:05:53;;;;;;;21.10;10.45;;;;;;;15.45;100.00;95874.19;5047480;28;20048;-79
2022/05/13 07:08:18;;;;;;;17.83;10.32;;;;;;;15.54;100.00;95869.75;5027378;28;20448;-75
2022/05/13 07:10:45;;;;;;;18.52;10.27;;;;;;;15.58;100.00;95873.41;5046785;28;20051;-78
2022/05/13 07:13:12;;;;;;;19.88;11.13;;;;;;;15.61;100.00;95867.53;5041344;28;20033;-79
2022/05/13 07:15:38;;;;;;;17.05;10.82;;;;;;;15.72;100.00;95868.91;5045071;28;20120;-78
2022/05/13 07:18:04;;;;;;;20.80;10.50;;;;;;;15.81;100.00;95862.97;5034539;28;20494;-75
2022/05/13 07:20:29;;;;;;;18.60;10.18;;;;;;;15.88;100.00;95866.78;5047724;28;20045;-78
2022/05/13 07:22:55;;;;;;;19.52;9.88;;;;;;;16.01;100.00;95862.56;5029537;28;20044;-76
2022/05/13 07:25:22;;;;;;;14.05;9.07;;;;;;;16.12;100.00;95873.78;5039334;28;20056;-77
2022/05/13 07:27:48;;;;;;;16.38;9.40;;;;;;;16.14;100.00;95873.50;5048695;28;20052;-79
2022/05/13 07:30:15;;;;;;;16.77;9.32;;;;;;;16.20;100.00;95877.63;5046037;28;20041;-75
2022/05/13 07:32:41;;;;;;;15.55;9.25;;;;;;;16.25;100.00;95880.19;5047743;28;20045;-74
2022/05/13 07:35:08;;;;;;;14.60;9.05;;;;;;;16.34;100.00;95881.03;5046198;28;20045;-74
2022/05/13 07:37:35;;;;;;;12.98;8.90;;;;;;;16.36;100.00;95876.22;5039479;28;20080;-75
2022/05/13 07:42:45;;;;;;;17.38;8.98;;;;;;;16.51;100.00;95877.00;5046807;28;20048;-75
2022/05/13 07:45:11;;;;;;;14.25;9.00;;;;;;;16.50;100.00;95875.41;5044740;28;20116;-75
2022/05/13 07:47:39;;;;;;;16.38;9.48;;;;;;;16.55;100.00;95880.63;5047165;28;20044;-75
2022/05/13 07:50:07;;;;;;;20.38;9.63;;;;;;;16.61;100.00;95874.13;5047128;28;20168;-76
2022/05/13 07:52:33;;;;;;;15.68;8.85;;;;;;;16.74;100.00;95864.53;5048694;28;20045;-75
2022/05/13 07:54:58;;;;;;;17.58;9.05;;;;;;;16.89;100.00;95866.09;5047689;28;20450;-76
2022/05/13 07:57:24;;;;;;;13.05;8.52;;;;;;;17.02;100.00;95870.56;5038580;28;20041;-76
2022/05/13 08:00:33;;;;;;;13.95;8.82;;;;;;;17.24;100.00;95866.34;5045971;28;20127;-76
2022/05/13 08:02:38;;;;;;;13.93;7.75;;;;;;;17.45;100.00;95866.63;5040235;28;20064;-76
2022/05/13 08:05:05;;;;;;;12.98;8.77;;;;;;;17.40;100.00;95864.88;5042236;28;20583;-76
2022/05/13 08:07:31;;;;;;;15.88;9.07;;;;;;;17.49;100.00;95857.72;5027645;28;22001;-76
2022/05/13 08:09:56;;;;;;;13.75;8.93;;;;;;;17.60;100.00;95863.59;5045146;28;20041;-76
2022/05/13 08:12:22;;;;;;;11.55;8.30;;;;;;;17.66;100.00;95856.25;5047935;28;20041;-76
2022/05/13 08:14:47;;;;;;;13.30;8.30;;;;;;;17.81;100.00;95860.38;5048502;28;20490;-76
2022/05/13 08:17:13;;;;;;;16.25;8.95;;;;;;;17.69;100.00;95855.66;5048590;28;20045;-79
2022/05/13 08:19:38;;;;;;;13.25;8.40;;;;;;;17.80;100.00;95851.63;5048753;28;20083;-76
2022/05/13 08:22:05;;;;;;;14.70;8.50;;;;;;;17.87;99.93;95853.06;5045696;28;20048;-75
2022/05/13 08:24:30;;;;;;;14.70;8.73;;;;;;;18.09;99.27;95853.00;5038412;28;20037;-76
2022/05/13 08:26:56;;;;;;;12.30;8.23;;;;;;;18.25;97.14;95849.91;5042649;28;20033;-77
2022/05/13 08:29:22;;;;;;;15.90;8.02;;;;;;;18.43;96.73;95850.72;5051743;28;20040;-76
2022/05/13 08:31:47;;;;;;;13.00;7.93;;;;;;;18.56;94.59;95843.69;5051176;28;20033;-77
2022/05/13 08:34:14;;;;;;;12.13;8.23;;;;;;;18.53;98.20;95845.91;5050174;28;20037;-77
2022/05/13 08:36:40;;;;;;;12.05;8.02;;;;;;;18.65;95.99;95836.50;5049942;28;21076;-77
2022/05/13 08:39:06;;;;;;;14.60;7.40;;;;;;;18.98;88.95;95833.41;5043351;28;20037;-77
2022/05/13 08:41:49;;;;;;;13.32;7.05;;;;;;;18.94;86.60;95837.78;5050498;28;20041;-81
2022/05/13 08:44:15;;;;;;;13.32;7.30;;;;;;;18.93;84.84;95836.22;5051569;28;20029;-77
2022/05/13 08:46:56;;;;;;;10.98;6.82;;;;;;;18.80;87.94;95833.34;5049916;28;20044;-76
2022/05/13 08:49:31;;;;;;;14.15;7.43;;;;;;;18.89;87.95;95827.25;5043673;28;20076;-77
2022/05/13 08:53:06;;;;;;;14.20;6.90;;;;;;;18.95;90.37;95828.66;5049208;28;20056;-76
2022/05/13 08:54:51;;;;;;;13.20;6.63;;;;;;;19.28;86.48;95826.28;5050887;28;20119;-76
2022/05/13 08:57:17;;;;;;;12.32;7.03;;;;;;;19.18;85.09;95831.97;5049537;28;20072;-77
2022/05/13 08:59:49;;;;;;;14.55;7.70;;;;;;;18.87;86.57;95833.69;5050895;28;20056;-75
2022/05/13 09:02:20;;;;;;;13.70;7.60;;;;;;;18.74;85.18;95829.28;5047125;28;20067;-76
2022/05/13 09:04:51;;;;;;;13.15;7.13;;;;;;;18.67;88.46;95824.41;5053771;28;20052;-76
2022/05/13 09:07:19;;;;;;;16.67;7.55;;;;;;;18.46;87.68;95829.59;5054809;28;20096;-75
2022/05/13 09:09:51;;;;;;;11.90;7.05;;;;;;;18.37;87.06;95830.66;5054817;28;20037;-78
2022/05/13 09:12:24;;;;;;;15.45;7.72;;;;;;;18.29;89.98;95832.22;5043565;28;20463;-76
2022/05/13 09:15:17;;;;;;;12.00;7.82;;;;;;;18.28;92.04;95818.09;5050214;28;20132;-78
2022/05/13 09:18:05;;;;;;;15.93;8.73;;;;;;;18.06;95.04;95816.34;5056788;28;20053;-77
2022/05/13 09:20:40;;;;;;;14.88;8.05;;;;;;;17.87;98.36;95818.44;5054145;28;20068;-77
2022/05/13 09:23:11;;;;;;;13.30;8.35;;;;;;;17.74;100.00;95820.91;5051779;28;20045;-77
2022/05/13 09:25:50;;;;;;;13.85;8.77;;;;;;;17.60;100.00;95825.56;5051484;28;20043;-78
2022/05/13 09:28:16;;;;;;;19.45;9.05;;;;;;;17.36;100.00;95842.63;5051558;28;20052;-78
2022/05/13 09:30:44;;;;;;;15.07;9.10;;;;;;;17.25;100.00;95830.69;5030136;28;20041;-77
2022/05/13 09:33:30;;;;;;;16.50;9.13;;;;;;;17.08;100.00;95845.44;5044456;28;20037;-77
2022/05/13 09:36:00;;;;;;;15.10;9.30;;;;;;;17.04;100.00;95841.00;5051777;28;20087;-77
2022/05/13 09:38:30;;;;;;;27.95;10.68;;;;;;;16.95;100.00;95854.25;5035789;28;20041;-74
2022/05/13 09:41:01;;;;;;;17.15;8.65;;;;;;;16.52;100.00;95846.69;5041656;28;20465;-75
2022/05/13 09:43:39;;;;;;;20.38;9.02;;;;;;;16.25;100.00;95832.38;5044588;28;20045;-76
2022/05/13 09:46:05;;;;;;;25.15;7.88;;;;;;;15.85;100.00;95808.22;5051567;28;20040;-77
2022/05/13 09:48:34;;;;;;;21.75;7.93;;;;;;;15.49;100.00;95832.75;5043401;28;20042;-76
2022/05/13 09:51:21;;;;;;;21.75;9.07;;;;;;;15.52;100.00;95837.47;5044636;28;20098;-78
2022/05/13 09:54:19;;;;;;;20.27;9.13;;;;;;;15.86;100.00;95857.53;5048683;28;20481;-76
2022/05/13 09:56:48;;;;;;;19.17;8.43;;;;;;;15.95;100.00;95855.78;5038098;28;20115;-76
2022/05/13 09:59:25;;;;;;;20.67;9.65;;;;;;;16.16;100.00;95850.06;5030064;28;20060;-76
2022/05/13 10:01:52;;;;;;;17.65;10.25;;;;;;;16.32;100.00;95859.31;5048370;28;20037;-76
2022/05/13 10:04:26;;;;;;;22.85;10.40;;;;;;;16.47;100.00;95849.47;5046711;28;20040;-75
2022/05/13 10:07:08;;;;;;;18.42;9.18;;;;;;;16.29;100.00;95843.97;5046911;28;20048;-75
2022/05/13 10:15:25;;;;;;;17.45;8.90;;;;;;;15.95;100.00;95845.19;5031698;28;20100;-76
2022/05/13 10:17:59;;;;;;;19.60;9.73;;;;;;;16.01;100.00;95844.00;5043554;28;20460;-75
2022/05/13 10:20:27;;;;;;;15.07;8.35;;;;;;;15.79;100.00;95846.53;5031109;28;20470;-75
2022/05/13 10:23:03;;;;;;;14.70;8.02;;;;;;;15.80;100.00;95848.88;5044298;28;20761;-76
2022/05/13 10:25:42;;;;;;;17.02;10.13;;;;;;;15.88;100.00;95861.47;5049493;28;20041;-76
2022/05/13 10:28:14;;;;;;;17.08;10.45;;;;;;;15.85;100.00;95877.22;5050705;28;20068;-76
2022/05/13 10:31:02;;;;;;;14.20;6.05;;;;;;;15.47;100.00;95877.31;5033920;28;20037;-75
2022/05/13 10:34:00;;;;;;;10.95;6.25;;;;;;;15.31;100.00;95868.84;5050138;28;20045;-75
2022/05/13 10:36:37;;;;;;;18.55;7.10;;;;;;;15.17;100.00;95879.38;5032612;28;20091;-75
2022/05/13 10:39:32;;;;;;;17.10;5.65;;;;;;;14.92;100.00;95889.31;5048522;28;20072;-73
2022/05/13 10:42:01;;;;;;;8.82;5.68;;;;;;;14.85;100.00;95894.16;5049653;28;20052;-74
2022/05/13 10:44:43;;;;;;;9.82;5.05;;;;;;;14.67;100.00;95883.28;5031598;28;20490;-75
2022/05/13 10:47:22;;;;;;;8.48;5.28;;;;;;;14.70;100.00;95881.94;5049765;28;20068;-75
2022/05/13 10:49:48;;;;;;;10.73;5.00;;;;;;;14.54;100.00;95910.47;5049107;28;20045;-75
2022/05/13 10:52:23;;;;;;;28.48;6.70;;;;;;;14.46;100.00;95929.63;5049469;28;20055;-73
2022/05/13 10:54:48;;;;;;;;;;;;;;;14.31;100.00;95902.25;5049761;28;20045;-73
2022/05/13 10:57:32;;;;;;;11.02;5.70;;;;;;;14.14;100.00;95908.00;5048837;28;19924;-72
2022/05/13 11:00:05;;;;;;;18.20;6.78;;;;;;;14.02;100.00;95908.41;5047789;28;20106;-73
2022/05/13 11:02:43;;;;;;;13.57;7.20;;;;;;;14.01;100.00;95920.06;5028403;28;20041;-72
2022/05/13 11:05:16;;;;;;;12.30;6.78;;;;;;;13.94;100.00;95930.19;5031330;28;20095;-71
2022/05/13 11:08:03;;;;;;;13.43;6.53;;;;;;;13.91;100.00;95946.63;5049374;28;20044;-73
2022/05/13 11:10:35;;;;;;;9.93;5.70;;;;;;;13.95;100.00;95946.84;5048282;28;20041;-73
2022/05/13 11:13:29;;;;;;;15.02;6.60;;;;;;;13.83;100.00;95939.28;5028227;28;20053;-73
2022/05/13 11:16:07;;;;;;;24.00;7.75;;;;;;;13.92;100.00;95934.16;5047431;28;20044;-73
2022/05/13 11:18:48;;;;;;;15.25;6.65;;;;;;;13.99;100.00;95927.50;5030256;28;20051;-73
2022/05/13 11:21:46;;;;;;;14.85;7.25;;;;;;;14.03;100.00;95923.19;5016856;28;20155;-73
2022/05/13 11:27:32;;;;;;;11.73;5.45;;;;;;;14.14;100.00;95917.81;5048545;28;20041;-73
2022/05/13 11:30:10;;;;;;;9.50;4.45;;;;;;;14.17;100.00;95918.03;5046820;28;20037;-73
2022/05/13 11:32:47;;;;;;;11.30;4.90;;;;;;;14.29;100.00;95919.50;5049133;28;20041;-74
2022/05/13 11:36:04;;;;;;;9.13;4.35;;;;;;;14.12;100.00;95914.66;5049441;28;20536;-73
2022/05/13 11:38:50;;;;;;;6.78;3.90;;;;;;;14.03;100.00;95907.31;5006515;28;20091;-73
2022/05/13 11:41:22;;;;;;;7.50;4.13;;;;;;;14.10;100.00;95916.78;5048323;28;20495;-73
2022/05/13 11:44:00;;;;;;;11.27;5.22;;;;;;;14.09;100.00;95907.28;5049104;28;20044;-73
2022/05/13 11:46:46;;;;;;;9.68;4.78;;;;;;;14.13;100.00;95910.94;5048860;28;20117;-73
2022/05/13 11:49:26;;;;;;;8.35;4.30;;;;;;;14.18;100.00;95916.19;5047594;28;20041;-74
2022/05/13 11:51:52;;;;;;;8.20;4.22;;;;;;;14.16;100.00;95915.66;5048966;28;20044;-73
2022/05/13 11:54:27;;;;;;;8.57;4.72;;;;;;;14.11;100.00;95913.09;5052065;28;20049;-73